createdAt,value
2023-04-07T00:03:13.448Z,83.38
2023-04-07T00:08:15.584Z,84.40
2023-04-07T00:13:17.194Z,84.56
2023-04-07T00:18:18.924Z,84.80
2023-04-07T00:23:20.556Z,84.86
2023-04-07T00:28:22.149Z,84.93
2023-04-07T00:33:23.789Z,85.88
2023-04-07T00:38:25.429Z,85.48
2023-04-07T00:43:27.490Z,85.79
2023-04-07T00:48:29.301Z,85.50
2023-04-07T00:53:30.867Z,86.27
2023-04-07T00:58:32.610Z,86.55
2023-04-07T01:03:49.653Z,86.86
2023-04-07T01:09:04.028Z,86.97
2023-04-07T01:14:06.873Z,87.45
2023-04-07T01:19:38.138Z,86.59
2023-04-07T01:25:06.556Z,86.08
2023-04-07T01:30:11.849Z,87.18
2023-04-07T01:35:14.889Z,87.77
2023-04-07T01:40:17.291Z,87.61
2023-04-07T01:45:20.711Z,87.95
2023-04-07T01:50:23.620Z,88.61
2023-04-07T01:55:26.157Z,88.90
2023-04-07T02:00:41.413Z,88.71
2023-04-07T02:05:54.472Z,88.17
2023-04-07T02:11:01.109Z,88.18
2023-04-07T02:16:07.795Z,89.08
2023-04-07T02:21:11.765Z,88.04
2023-04-07T02:26:13.575Z,88.55
2023-04-07T02:31:15.237Z,89.17
2023-04-07T02:36:16.864Z,88.95
2023-04-07T02:41:18.560Z,89.18
2023-04-07T02:46:20.318Z,88.95
2023-04-07T02:51:22.012Z,88.56
2023-04-07T02:56:23.683Z,89.81
2023-04-07T03:01:25.569Z,88.89
2023-04-07T03:06:27.400Z,89.07
2023-04-07T03:11:37.587Z,89.19
2023-04-07T03:16:39.287Z,89.07
2023-04-07T03:21:46.874Z,89.90
2023-04-07T03:26:48.710Z,89.44
2023-04-07T03:31:59.125Z,90.14
2023-04-07T03:37:02.040Z,90.02
2023-04-07T03:42:07.022Z,90.03
2023-04-07T03:47:09.493Z,90.43
2023-04-07T03:52:12.671Z,89.87
2023-04-07T03:57:15.423Z,89.30
2023-04-07T04:02:21.323Z,89.71
2023-04-07T04:07:28.133Z,90.15
2023-04-07T04:12:35.640Z,90.54
2023-04-07T04:17:42.722Z,90.59
2023-04-07T04:22:44.531Z,90.84
2023-04-07T04:27:47.209Z,90.58
2023-04-07T04:33:01.157Z,91.22
2023-04-07T04:38:10.562Z,90.35
2023-04-07T04:43:16.344Z,90.95
2023-04-07T04:48:18.168Z,91.21
2023-04-07T04:53:19.842Z,89.86
2023-04-07T04:58:27.175Z,89.88
2023-04-07T05:03:31.701Z,89.74
2023-04-07T05:08:37.968Z,88.44
2023-04-07T05:13:40.555Z,88.17
2023-04-07T05:18:42.270Z,87.81
2023-04-07T05:23:44.023Z,86.95
2023-04-07T05:28:46.750Z,86.52
2023-04-07T05:33:53.567Z,84.87
2023-04-07T05:38:58.069Z,84.03
2023-04-07T05:43:59.775Z,81.57
2023-04-07T05:49:13.109Z,79.62
2023-04-07T05:54:23.908Z,71.48
2023-04-07T05:59:26.584Z,73.52
2023-04-07T06:04:28.383Z,77.31
2023-04-07T06:09:30.432Z,78.93
2023-04-07T06:14:32.246Z,79.83
2023-04-07T06:19:35.117Z,78.21
2023-04-07T06:24:36.852Z,72.82
2023-04-07T06:29:38.653Z,62.32
2023-04-07T06:34:41.367Z,57.53
2023-04-07T06:39:44.049Z,52.51
2023-04-07T06:44:45.921Z,51.17
2023-04-07T06:49:47.507Z,52.00
2023-04-07T06:54:49.185Z,51.68
2023-04-07T06:59:51.257Z,49.74
2023-04-07T07:04:52.868Z,49.59
2023-04-07T07:09:54.515Z,49.39
2023-04-07T07:14:56.118Z,46.39
2023-04-07T07:19:57.725Z,43.62
2023-04-07T07:24:59.404Z,42.80
2023-04-07T07:30:01.259Z,40.58
2023-04-07T07:35:02.882Z,41.06
2023-04-07T07:40:05.189Z,44.67
2023-04-07T07:45:07.244Z,43.15
2023-04-07T07:50:09.330Z,41.50
2023-04-07T07:55:11.001Z,43.66
2023-04-07T08:00:13.163Z,42.00
2023-04-07T08:05:18.063Z,36.17
2023-04-07T08:10:20.365Z,34.40
2023-04-07T08:15:22.261Z,34.68
2023-04-07T08:20:24.177Z,39.47
2023-04-07T08:25:25.959Z,42.88
2023-04-07T08:30:27.594Z,45.88
2023-04-07T08:35:29.254Z,46.40
2023-04-07T08:40:31.253Z,47.51
2023-04-07T08:45:34.224Z,46.80
2023-04-07T08:50:36.364Z,47.44
2023-04-07T08:55:37.969Z,47.72
2023-04-07T09:00:43.018Z,46.99
2023-04-07T09:05:46.478Z,47.09
2023-04-07T09:10:48.170Z,46.65
2023-04-07T09:15:49.932Z,47.26
2023-04-07T09:21:01.734Z,47.02
2023-04-07T09:26:18.781Z,44.57
2023-04-07T09:31:23.383Z,44.05
2023-04-07T09:36:25.063Z,44.07
2023-04-07T09:41:27.919Z,45.12
2023-04-07T09:46:29.887Z,44.91
2023-04-07T09:51:31.546Z,44.23
2023-04-07T09:56:33.505Z,47.12
2023-04-07T10:01:35.983Z,45.35
2023-04-07T10:06:37.689Z,45.70
2023-04-07T10:11:43.171Z,45.26
2023-04-07T10:16:46.849Z,47.81
2023-04-07T10:21:55.207Z,45.75
2023-04-07T10:27:03.463Z,46.43
2023-04-07T10:32:05.314Z,45.62
2023-04-07T10:37:13.646Z,44.86
2023-04-07T10:42:37.088Z,44.17
2023-04-07T10:48:11.475Z,45.58
2023-04-07T10:53:14.800Z,43.59
2023-04-07T10:58:29.017Z,43.76
2023-04-07T11:03:35.997Z,43.39
2023-04-07T11:08:48.970Z,43.27
2023-04-07T11:13:51.658Z,43.30
2023-04-07T11:18:57.386Z,43.47
2023-04-07T11:23:59.042Z,44.32
2023-04-07T11:29:01.455Z,43.02
2023-04-07T11:34:05.184Z,41.14
2023-04-07T11:39:18.662Z,41.95
2023-04-07T11:44:20.467Z,41.90
2023-04-07T11:49:23.942Z,42.06
2023-04-07T11:54:25.560Z,40.91
2023-04-07T11:59:27.188Z,37.91
2023-04-07T12:04:28.828Z,39.62
2023-04-07T12:09:32.499Z,39.19
2023-04-07T12:14:35.304Z,43.08
2023-04-07T12:19:39.533Z,44.93
2023-04-07T12:24:41.289Z,43.67
2023-04-07T12:29:44.071Z,42.53
2023-04-07T12:34:45.691Z,43.40
2023-04-07T12:39:50.275Z,42.06
2023-04-07T12:44:51.885Z,40.11
2023-04-07T12:49:53.470Z,41.51
2023-04-07T12:54:55.121Z,42.34
2023-04-07T12:59:56.804Z,44.17
2023-04-07T13:04:58.458Z,43.79
2023-04-07T13:10:00.060Z,43.86
2023-04-07T13:15:02.638Z,43.74
2023-04-07T13:20:06.009Z,45.34
2023-04-07T13:25:08.900Z,44.92
2023-04-07T13:30:11.214Z,46.06
2023-04-07T13:35:12.827Z,45.83
2023-04-07T13:40:14.415Z,47.08
2023-04-07T13:45:16.384Z,47.66
2023-04-07T13:50:17.963Z,46.34
2023-04-07T13:55:20.484Z,45.00
2023-04-07T14:00:22.158Z,46.27
2023-04-07T14:05:24.546Z,46.00
2023-04-07T14:10:26.308Z,46.44
2023-04-07T14:15:27.990Z,45.14
2023-04-07T14:20:29.653Z,45.87
2023-04-07T14:25:32.134Z,45.90
2023-04-07T14:30:38.479Z,46.15
2023-04-07T14:35:40.122Z,46.38
2023-04-07T14:40:41.803Z,46.07
2023-04-07T14:45:43.732Z,46.31
2023-04-07T14:50:46.106Z,47.78
2023-04-07T14:55:48.015Z,48.49
2023-04-07T15:00:49.730Z,49.35
2023-04-07T15:05:51.373Z,48.91
2023-04-07T15:10:52.994Z,49.54
2023-04-07T15:15:54.654Z,50.02
2023-04-07T15:20:56.269Z,49.76
2023-04-07T15:25:57.907Z,50.12
2023-04-07T15:31:00.561Z,50.23
2023-04-07T15:36:02.329Z,51.81
2023-04-07T15:41:04.040Z,50.72
2023-04-07T15:46:05.685Z,51.88
2023-04-07T15:51:07.369Z,52.80
2023-04-07T15:56:09.122Z,53.26
2023-04-07T16:01:11.114Z,54.28
2023-04-07T16:06:13.245Z,53.97
2023-04-07T16:11:14.851Z,53.88
2023-04-07T16:16:16.519Z,54.69
2023-04-07T16:21:18.158Z,55.90
2023-04-07T16:26:19.851Z,57.25
2023-04-07T16:31:21.474Z,58.15
2023-04-07T16:36:23.264Z,58.14
2023-04-07T16:41:25.075Z,58.93
2023-04-07T16:46:30.632Z,59.55
2023-04-07T16:51:32.381Z,59.79
2023-04-07T16:56:33.967Z,60.25
2023-04-07T17:01:35.888Z,61.23
2023-04-07T17:06:37.654Z,61.22
2023-04-07T17:11:41.112Z,61.49
2023-04-07T17:16:42.797Z,61.66
2023-04-07T17:21:44.491Z,62.12
2023-04-07T17:26:49.633Z,62.97
2023-04-07T17:31:51.292Z,62.74
2023-04-07T17:36:52.905Z,62.35
2023-04-07T17:41:54.512Z,62.96
2023-04-07T17:46:56.442Z,63.53
2023-04-07T17:51:58.061Z,64.17
2023-04-07T17:57:00.997Z,64.99
2023-04-07T18:02:08.964Z,65.65
2023-04-07T18:07:12.957Z,65.66
2023-04-07T18:12:14.599Z,66.22
2023-04-07T18:17:16.512Z,67.36
2023-04-07T18:22:18.143Z,68.36
2023-04-07T18:27:23.967Z,70.10
2023-04-07T18:32:25.664Z,70.45
2023-04-07T18:37:29.526Z,71.72
2023-04-07T18:42:31.213Z,71.81
2023-04-07T18:47:32.918Z,72.38
2023-04-07T18:52:34.648Z,73.17
2023-04-07T18:57:37.181Z,73.48
2023-04-07T19:02:44.364Z,75.27
2023-04-07T19:07:46.299Z,77.29
2023-04-07T19:12:47.905Z,78.90
2023-04-07T19:17:49.606Z,79.99
2023-04-07T19:22:51.538Z,81.88
2023-04-07T19:27:53.266Z,82.87
2023-04-07T19:32:55.297Z,84.60
2023-04-07T19:37:56.914Z,87.34
2023-04-07T19:42:58.572Z,90.23
2023-04-07T19:48:00.376Z,91.33
2023-04-07T19:53:02.106Z,92.32
2023-04-07T19:58:03.738Z,91.24
2023-04-07T20:03:06.107Z,91.77
2023-04-07T20:08:07.857Z,92.64
2023-04-07T20:13:09.711Z,93.61
2023-04-07T20:18:12.002Z,93.02
2023-04-07T20:23:16.031Z,94.10
2023-04-07T20:28:17.714Z,95.02
2023-04-07T20:33:20.476Z,96.07
2023-04-07T20:38:22.270Z,95.88
2023-04-07T20:43:24.375Z,94.82
2023-04-07T20:48:26.721Z,93.78
2023-04-07T20:53:28.345Z,93.80
2023-04-07T20:58:30.018Z,93.37
2023-04-07T21:03:31.832Z,92.86
2023-04-07T21:08:33.515Z,92.58
2023-04-07T21:13:35.201Z,92.98
2023-04-07T21:18:37.219Z,93.56
2023-04-07T21:23:38.907Z,94.57
2023-04-07T21:28:40.901Z,93.55
2023-04-07T21:33:42.494Z,95.06
2023-04-07T21:38:44.121Z,96.07
2023-04-07T21:43:46.095Z,97.98
2023-04-07T21:48:49.197Z,98.97
2023-04-07T21:53:51.267Z,98.18
2023-04-07T21:58:52.854Z,97.42
2023-04-07T22:03:55.051Z,98.86
2023-04-07T22:09:01.713Z,100.00
2023-04-07T22:14:03.959Z,100.00
2023-04-07T22:19:05.718Z,100.00
2023-04-07T22:24:07.343Z,100.00
2023-04-07T22:29:09.614Z,100.00
2023-04-07T22:34:11.450Z,100.00
2023-04-07T22:39:13.089Z,100.00
2023-04-07T22:44:14.792Z,100.00
2023-04-07T22:49:16.765Z,100.00
2023-04-07T22:54:18.431Z,100.00
2023-04-07T22:59:20.088Z,100.00
2023-04-07T23:04:22.481Z,100.00
2023-04-07T23:09:24.097Z,100.00
2023-04-07T23:14:25.771Z,100.00
2023-04-07T23:19:27.485Z,100.00
2023-04-07T23:24:29.153Z,100.00
2023-04-07T23:29:31.564Z,100.00
2023-04-07T23:34:33.185Z,100.00
2023-04-07T23:39:34.791Z,100.00
2023-04-07T23:44:36.523Z,100.00
2023-04-07T23:49:38.136Z,100.00
2023-04-07T23:54:39.760Z,100.00
2023-04-07T23:59:41.352Z,100.00
